Warren, Connecticut
Current Conditions -  °F | °C
As of 1:52 PM on Friday 21 Nov 2014 (Local Time) from KOXC Reporting Station
Scattered Clouds Scattered Clouds  
Wind Chill: 22°   Ceiling: Unl
Heat Index: 32°   Visibility: 10mi
Dew Point:   Wind: 15mph
Humidity: 38%   Direction: 310°NW
Pressure: 30.21"   Gusts: 22mph
Location:  41.6879°N, 73.3378°W
Report Text: KOXC 211752Z 31013G19KT 10SM SCT050 00/M13 A3021
Loading
Personal Weather Stations






























Interactive Weather Map New forecast layout! Learn more

10-Day Weather Forecast

Advertisements
Track Severe Weather on mobile